Groton, New York
Current Conditions -  °F | °C
As of 4:15 AM on Friday 19 Dec 2014 (Local Time) from KN03 Reporting Station
Light Snow Light Snow  
Wind Chill: 18°   Ceiling: 1300
Heat Index: 27°   Visibility: 5mi
Dew Point: 25°   Wind: 8mph
Humidity: 93%   Direction: 300°WNW
Pressure: 30.02"   Gusts: NA
Location:  42.59°N, 76.37°W
Report Text: KN03 190915Z AUTO 30007KT 5SM -SN BKN013 OVC018 M03/M04 A3002 RMK AO2
Loading
Personal Weather Stations






























Interactive Weather Map New forecast layout! Learn more

10-Day Weather Forecast

Advertisements
Track Severe Weather on mobile